sensor_id;sensor_type;location;lat;lon;timestamp;P1;durP1;ratioP1;P2;durP2;ratioP2
16804;SDS011;8520;50.102;20.010;2022-10-26T00:00:51;71.40;;;66.53;;
16804;SDS011;8520;50.102;20.010;2022-10-26T00:03:19;71.63;;;66.60;;
16804;SDS011;8520;50.102;20.010;2022-10-26T00:05:47;70.77;;;65.87;;
16804;SDS011;8520;50.102;20.010;2022-10-26T00:08:15;69.47;;;64.67;;
16804;SDS011;8520;50.102;20.010;2022-10-26T00:10:43;69.27;;;64.37;;
16804;SDS011;8520;50.102;20.010;2022-10-26T00:13:11;69.93;;;64.90;;
16804;SDS011;8520;50.102;20.010;2022-10-26T00:15:40;72.07;;;66.97;;
16804;SDS011;8520;50.102;20.010;2022-10-26T00:18:09;73.10;;;68.00;;
16804;SDS011;8520;50.102;20.010;2022-10-26T00:20:37;73.90;;;68.60;;
16804;SDS011;8520;50.102;20.010;2022-10-26T00:23:05;72.70;;;67.37;;
16804;SDS011;8520;50.102;20.010;2022-10-26T00:25:33;73.17;;;67.87;;
16804;SDS011;8520;50.102;20.010;2022-10-26T00:28:02;74.20;;;68.80;;
16804;SDS011;8520;50.102;20.010;2022-10-26T00:30:30;75.30;;;69.93;;
16804;SDS011;8520;50.102;20.010;2022-10-26T00:32:58;73.57;;;68.47;;
16804;SDS011;8520;50.102;20.010;2022-10-26T00:35:27;75.77;;;70.47;;
16804;SDS011;8520;50.102;20.010;2022-10-26T00:38:10;77.53;;;72.13;;
16804;SDS011;8520;50.102;20.010;2022-10-26T00:40:38;79.27;;;73.67;;
16804;SDS011;8520;50.102;20.010;2022-10-26T00:43:09;80.03;;;74.43;;
16804;SDS011;8520;50.102;20.010;2022-10-26T00:45:42;81.57;;;75.80;;
16804;SDS011;8520;50.102;20.010;2022-10-26T00:48:13;81.20;;;75.77;;
16804;SDS011;8520;50.102;20.010;2022-10-26T00:50:49;83.13;;;77.13;;
16804;SDS011;8520;50.102;20.010;2022-10-26T00:53:20;80.90;;;75.23;;
16804;SDS011;8520;50.102;20.010;2022-10-26T00:55:48;82.10;;;76.13;;
16804;SDS011;8520;50.102;20.010;2022-10-26T00:58:19;81.07;;;75.33;;
16804;SDS011;8520;50.102;20.010;2022-10-26T01:00:49;81.47;;;75.60;;
16804;SDS011;8520;50.102;20.010;2022-10-26T01:03:18;78.30;;;73.03;;
16804;SDS011;8520;50.102;20.010;2022-10-26T01:05:47;81.00;;;75.30;;
16804;SDS011;8520;50.102;20.010;2022-10-26T01:08:20;80.13;;;74.27;;
16804;SDS011;8520;50.102;20.010;2022-10-26T01:10:48;79.27;;;73.87;;
16804;SDS011;8520;50.102;20.010;2022-10-26T01:13:17;78.73;;;73.07;;
16804;SDS011;8520;50.102;20.010;2022-10-26T01:15:47;78.53;;;72.83;;
16804;SDS011;8520;50.102;20.010;2022-10-26T01:18:21;78.80;;;73.23;;
16804;SDS011;8520;50.102;20.010;2022-10-26T01:23:56;76.07;;;71.03;;
16804;SDS011;8520;50.102;20.010;2022-10-26T01:26:51;75.20;;;69.80;;
16804;SDS011;8520;50.102;20.010;2022-10-26T01:29:32;74.30;;;69.23;;
16804;SDS011;8520;50.102;20.010;2022-10-26T01:32:23;75.30;;;70.13;;
16804;SDS011;8520;50.102;20.010;2022-10-26T01:34:58;75.00;;;69.93;;
16804;SDS011;8520;50.102;20.010;2022-10-26T01:37:35;75.03;;;69.67;;
16804;SDS011;8520;50.102;20.010;2022-10-26T01:40:09;72.47;;;67.33;;
16804;SDS011;8520;50.102;20.010;2022-10-26T01:42:43;72.00;;;67.20;;
16804;SDS011;8520;50.102;20.010;2022-10-26T01:45:17;71.17;;;66.20;;
16804;SDS011;8520;50.102;20.010;2022-10-26T01:47:47;69.83;;;65.10;;
16804;SDS011;8520;50.102;20.010;2022-10-26T01:50:16;71.10;;;65.80;;
16804;SDS011;8520;50.102;20.010;2022-10-26T01:52:48;67.87;;;63.40;;
16804;SDS011;8520;50.102;20.010;2022-10-26T01:55:39;67.30;;;62.50;;
16804;SDS011;8520;50.102;20.010;2022-10-26T01:58:19;67.23;;;62.50;;
16804;SDS011;8520;50.102;20.010;2022-10-26T02:01:01;65.67;;;61.17;;
16804;SDS011;8520;50.102;20.010;2022-10-26T02:03:43;66.83;;;62.10;;
16804;SDS011;8520;50.102;20.010;2022-10-26T02:06:18;66.80;;;61.93;;
16804;SDS011;8520;50.102;20.010;2022-10-26T02:08:57;67.53;;;62.77;;
16804;SDS011;8520;50.102;20.010;2022-10-26T02:11:35;65.37;;;60.67;;
16804;SDS011;8520;50.102;20.010;2022-10-26T02:14:08;63.73;;;59.10;;
16804;SDS011;8520;50.102;20.010;2022-10-26T02:16:48;63.57;;;59.00;;
16804;SDS011;8520;50.102;20.010;2022-10-26T02:19:28;60.47;;;56.20;;
16804;SDS011;8520;50.102;20.010;2022-10-26T02:22:02;62.03;;;57.73;;
16804;SDS011;8520;50.102;20.010;2022-10-26T02:24:37;60.90;;;56.60;;
16804;SDS011;8520;50.102;20.010;2022-10-26T02:27:09;61.20;;;56.93;;
16804;SDS011;8520;50.102;20.010;2022-10-26T02:29:43;62.67;;;58.07;;
16804;SDS011;8520;50.102;20.010;2022-10-26T02:32:11;63.23;;;58.60;;
16804;SDS011;8520;50.102;20.010;2022-10-26T02:34:42;64.17;;;59.60;;
16804;SDS011;8520;50.102;20.010;2022-10-26T02:37:12;61.20;;;57.20;;
16804;SDS011;8520;50.102;20.010;2022-10-26T02:39:44;62.30;;;57.83;;
16804;SDS011;8520;50.102;20.010;2022-10-26T02:42:14;62.33;;;58.03;;
16804;SDS011;8520;50.102;20.010;2022-10-26T02:44:45;61.47;;;57.40;;
16804;SDS011;8520;50.102;20.010;2022-10-26T02:47:16;58.57;;;54.80;;
16804;SDS011;8520;50.102;20.010;2022-10-26T02:49:47;61.27;;;57.00;;
16804;SDS011;8520;50.102;20.010;2022-10-26T02:52:16;57.97;;;54.23;;
16804;SDS011;8520;50.102;20.010;2022-10-26T02:54:51;58.27;;;54.53;;
16804;SDS011;8520;50.102;20.010;2022-10-26T02:57:23;59.67;;;55.53;;
16804;SDS011;8520;50.102;20.010;2022-10-26T02:59:58;58.77;;;54.80;;
16804;SDS011;8520;50.102;20.010;2022-10-26T03:02:27;58.97;;;54.93;;
16804;SDS011;8520;50.102;20.010;2022-10-26T03:04:59;58.70;;;54.60;;
16804;SDS011;8520;50.102;20.010;2022-10-26T03:07:34;58.13;;;54.33;;
16804;SDS011;8520;50.102;20.010;2022-10-26T03:10:02;57.33;;;53.53;;
16804;SDS011;8520;50.102;20.010;2022-10-26T03:12:30;57.53;;;53.83;;
16804;SDS011;8520;50.102;20.010;2022-10-26T03:14:58;58.37;;;54.40;;
16804;SDS011;8520;50.102;20.010;2022-10-26T03:17:26;55.40;;;51.80;;
16804;SDS011;8520;50.102;20.010;2022-10-26T03:19:54;57.43;;;53.60;;
16804;SDS011;8520;50.102;20.010;2022-10-26T03:22:24;56.43;;;52.93;;
16804;SDS011;8520;50.102;20.010;2022-10-26T03:24:52;58.87;;;54.33;;
16804;SDS011;8520;50.102;20.010;2022-10-26T03:27:20;59.77;;;55.67;;
16804;SDS011;8520;50.102;20.010;2022-10-26T03:29:48;61.23;;;56.90;;
16804;SDS011;8520;50.102;20.010;2022-10-26T03:32:16;63.87;;;59.13;;
16804;SDS011;8520;50.102;20.010;2022-10-26T03:34:44;62.60;;;58.47;;
16804;SDS011;8520;50.102;20.010;2022-10-26T03:37:12;63.73;;;59.10;;
16804;SDS011;8520;50.102;20.010;2022-10-26T03:39:42;65.47;;;61.00;;
16804;SDS011;8520;50.102;20.010;2022-10-26T03:42:10;67.13;;;62.43;;
16804;SDS011;8520;50.102;20.010;2022-10-26T03:44:38;66.43;;;61.80;;
16804;SDS011;8520;50.102;20.010;2022-10-26T03:47:05;67.87;;;63.07;;
16804;SDS011;8520;50.102;20.010;2022-10-26T03:49:33;66.97;;;62.17;;
16804;SDS011;8520;50.102;20.010;2022-10-26T03:52:02;66.13;;;61.43;;
16804;SDS011;8520;50.102;20.010;2022-10-26T03:54:31;68.03;;;63.27;;
16804;SDS011;8520;50.102;20.010;2022-10-26T03:57:00;66.77;;;62.27;;
16804;SDS011;8520;50.102;20.010;2022-10-26T03:59:28;69.17;;;64.27;;
16804;SDS011;8520;50.102;20.010;2022-10-26T04:01:56;67.87;;;63.27;;
16804;SDS011;8520;50.102;20.010;2022-10-26T04:04:24;69.83;;;65.03;;
16804;SDS011;8520;50.102;20.010;2022-10-26T04:06:52;69.80;;;65.00;;
16804;SDS011;8520;50.102;20.010;2022-10-26T04:09:21;70.57;;;65.73;;
16804;SDS011;8520;50.102;20.010;2022-10-26T04:11:48;70.37;;;65.57;;
16804;SDS011;8520;50.102;20.010;2022-10-26T04:14:18;70.13;;;65.40;;
16804;SDS011;8520;50.102;20.010;2022-10-26T04:16:46;71.60;;;66.70;;
16804;SDS011;8520;50.102;20.010;2022-10-26T04:19:14;71.67;;;66.70;;
16804;SDS011;8520;50.102;20.010;2022-10-26T04:21:42;71.53;;;66.87;;
16804;SDS011;8520;50.102;20.010;2022-10-26T04:24:10;72.00;;;67.30;;
16804;SDS011;8520;50.102;20.010;2022-10-26T04:26:39;70.53;;;65.80;;
16804;SDS011;8520;50.102;20.010;2022-10-26T04:29:06;72.63;;;67.80;;
16804;SDS011;8520;50.102;20.010;2022-10-26T04:31:36;73.67;;;68.97;;
16804;SDS011;8520;50.102;20.010;2022-10-26T04:34:04;73.50;;;68.07;;
16804;SDS011;8520;50.102;20.010;2022-10-26T04:36:32;72.37;;;67.17;;
16804;SDS011;8520;50.102;20.010;2022-10-26T04:39:01;72.83;;;67.93;;
16804;SDS011;8520;50.102;20.010;2022-10-26T04:41:29;75.43;;;70.13;;
16804;SDS011;8520;50.102;20.010;2022-10-26T04:43:57;76.33;;;70.87;;
16804;SDS011;8520;50.102;20.010;2022-10-26T04:46:25;84.27;;;78.33;;
16804;SDS011;8520;50.102;20.010;2022-10-26T04:48:55;82.50;;;76.77;;
16804;SDS011;8520;50.102;20.010;2022-10-26T04:51:23;77.77;;;72.17;;
16804;SDS011;8520;50.102;20.010;2022-10-26T04:53:52;75.87;;;70.53;;
16804;SDS011;8520;50.102;20.010;2022-10-26T04:56:20;72.33;;;67.63;;
16804;SDS011;8520;50.102;20.010;2022-10-26T04:58:48;83.00;;;77.40;;
16804;SDS011;8520;50.102;20.010;2022-10-26T05:01:16;87.00;;;80.90;;
16804;SDS011;8520;50.102;20.010;2022-10-26T05:03:47;88.50;;;82.20;;
16804;SDS011;8520;50.102;20.010;2022-10-26T05:06:17;85.67;;;79.57;;
16804;SDS011;8520;50.102;20.010;2022-10-26T05:08:45;87.30;;;81.10;;
16804;SDS011;8520;50.102;20.010;2022-10-26T05:11:13;85.93;;;79.50;;
16804;SDS011;8520;50.102;20.010;2022-10-26T05:13:42;84.43;;;78.33;;
16804;SDS011;8520;50.102;20.010;2022-10-26T05:16:10;83.37;;;77.53;;
16804;SDS011;8520;50.102;20.010;2022-10-26T05:18:38;83.93;;;78.03;;
16804;SDS011;8520;50.102;20.010;2022-10-26T05:21:05;85.50;;;79.00;;
16804;SDS011;8520;50.102;20.010;2022-10-26T05:23:35;88.47;;;82.00;;
16804;SDS011;8520;50.102;20.010;2022-10-26T05:26:03;88.87;;;82.47;;
16804;SDS011;8520;50.102;20.010;2022-10-26T05:28:31;89.90;;;83.70;;
16804;SDS011;8520;50.102;20.010;2022-10-26T05:30:59;92.80;;;86.23;;
16804;SDS011;8520;50.102;20.010;2022-10-26T05:33:27;91.80;;;84.97;;
16804;SDS011;8520;50.102;20.010;2022-10-26T05:35:55;92.17;;;85.43;;
16804;SDS011;8520;50.102;20.010;2022-10-26T05:38:23;90.20;;;84.00;;
16804;SDS011;8520;50.102;20.010;2022-10-26T05:40:57;91.20;;;84.30;;
16804;SDS011;8520;50.102;20.010;2022-10-26T05:43:26;88.60;;;82.40;;
16804;SDS011;8520;50.102;20.010;2022-10-26T05:45:55;88.40;;;81.93;;
16804;SDS011;8520;50.102;20.010;2022-10-26T05:48:23;86.37;;;80.57;;
16804;SDS011;8520;50.102;20.010;2022-10-26T05:50:51;90.00;;;83.50;;
16804;SDS011;8520;50.102;20.010;2022-10-26T05:53:19;89.80;;;83.57;;
16804;SDS011;8520;50.102;20.010;2022-10-26T05:55:47;89.63;;;83.40;;
16804;SDS011;8520;50.102;20.010;2022-10-26T05:58:18;89.37;;;83.10;;
16804;SDS011;8520;50.102;20.010;2022-10-26T06:00:49;91.33;;;84.63;;
16804;SDS011;8520;50.102;20.010;2022-10-26T06:03:44;88.17;;;82.07;;
16804;SDS011;8520;50.102;20.010;2022-10-26T06:06:21;87.97;;;81.80;;
16804;SDS011;8520;50.102;20.010;2022-10-26T06:08:50;88.57;;;82.47;;
16804;SDS011;8520;50.102;20.010;2022-10-26T06:11:18;90.93;;;84.43;;
16804;SDS011;8520;50.102;20.010;2022-10-26T06:13:48;88.73;;;82.47;;
16804;SDS011;8520;50.102;20.010;2022-10-26T06:16:24;87.60;;;81.50;;
16804;SDS011;8520;50.102;20.010;2022-10-26T06:19:02;87.33;;;81.33;;
16804;SDS011;8520;50.102;20.010;2022-10-26T06:21:42;87.83;;;81.77;;
16804;SDS011;8520;50.102;20.010;2022-10-26T06:24:21;86.03;;;79.67;;
16804;SDS011;8520;50.102;20.010;2022-10-26T06:26:56;88.40;;;81.70;;
16804;SDS011;8520;50.102;20.010;2022-10-26T06:29:34;85.53;;;79.47;;
16804;SDS011;8520;50.102;20.010;2022-10-26T06:32:09;83.53;;;77.73;;
16804;SDS011;8520;50.102;20.010;2022-10-26T06:34:41;83.13;;;77.27;;
16804;SDS011;8520;50.102;20.010;2022-10-26T06:37:11;79.97;;;74.03;;
16804;SDS011;8520;50.102;20.010;2022-10-26T06:39:41;81.10;;;75.00;;
16804;SDS011;8520;50.102;20.010;2022-10-26T06:42:18;79.47;;;73.63;;
16804;SDS011;8520;50.102;20.010;2022-10-26T06:44:48;78.60;;;72.90;;
16804;SDS011;8520;50.102;20.010;2022-10-26T06:47:17;78.97;;;73.37;;
16804;SDS011;8520;50.102;20.010;2022-10-26T06:49:57;77.63;;;72.13;;
16804;SDS011;8520;50.102;20.010;2022-10-26T06:52:32;77.77;;;72.30;;
16804;SDS011;8520;50.102;20.010;2022-10-26T06:55:03;75.13;;;69.83;;
16804;SDS011;8520;50.102;20.010;2022-10-26T06:57:33;73.27;;;68.17;;
16804;SDS011;8520;50.102;20.010;2022-10-26T07:00:04;72.93;;;67.50;;
16804;SDS011;8520;50.102;20.010;2022-10-26T07:02:34;73.40;;;67.93;;
16804;SDS011;8520;50.102;20.010;2022-10-26T07:05:03;68.97;;;64.40;;
16804;SDS011;8520;50.102;20.010;2022-10-26T07:07:35;67.80;;;63.27;;
16804;SDS011;8520;50.102;20.010;2022-10-26T07:10:08;66.07;;;61.37;;
16804;SDS011;8520;50.102;20.010;2022-10-26T07:12:37;65.40;;;60.73;;
16804;SDS011;8520;50.102;20.010;2022-10-26T07:15:06;65.10;;;60.27;;
16804;SDS011;8520;50.102;20.010;2022-10-26T07:17:43;62.17;;;57.97;;
16804;SDS011;8520;50.102;20.010;2022-10-26T07:20:12;63.30;;;58.87;;
16804;SDS011;8520;50.102;20.010;2022-10-26T07:22:40;61.40;;;56.77;;
16804;SDS011;8520;50.102;20.010;2022-10-26T07:25:09;59.47;;;55.13;;
16804;SDS011;8520;50.102;20.010;2022-10-26T07:27:38;58.70;;;54.80;;
16804;SDS011;8520;50.102;20.010;2022-10-26T07:30:08;59.73;;;54.73;;
16804;SDS011;8520;50.102;20.010;2022-10-26T07:32:37;60.20;;;54.97;;
16804;SDS011;8520;50.102;20.010;2022-10-26T07:35:05;57.73;;;52.97;;
16804;SDS011;8520;50.102;20.010;2022-10-26T07:37:33;57.53;;;52.97;;
16804;SDS011;8520;50.102;20.010;2022-10-26T07:40:02;55.20;;;51.07;;
16804;SDS011;8520;50.102;20.010;2022-10-26T07:42:32;53.60;;;49.77;;
16804;SDS011;8520;50.102;20.010;2022-10-26T07:45:02;52.13;;;48.57;;
16804;SDS011;8520;50.102;20.010;2022-10-26T07:47:32;52.00;;;47.63;;
16804;SDS011;8520;50.102;20.010;2022-10-26T07:50:00;50.37;;;46.47;;
16804;SDS011;8520;50.102;20.010;2022-10-26T07:52:30;48.60;;;45.13;;
16804;SDS011;8520;50.102;20.010;2022-10-26T07:55:00;48.40;;;44.63;;
16804;SDS011;8520;50.102;20.010;2022-10-26T07:57:28;45.70;;;42.30;;
16804;SDS011;8520;50.102;20.010;2022-10-26T07:59:56;45.90;;;42.50;;
16804;SDS011;8520;50.102;20.010;2022-10-26T08:02:24;43.43;;;40.37;;
16804;SDS011;8520;50.102;20.010;2022-10-26T08:04:53;43.47;;;40.33;;
16804;SDS011;8520;50.102;20.010;2022-10-26T08:07:21;44.37;;;40.67;;
16804;SDS011;8520;50.102;20.010;2022-10-26T08:09:51;42.37;;;39.30;;
16804;SDS011;8520;50.102;20.010;2022-10-26T08:12:19;42.17;;;38.60;;
16804;SDS011;8520;50.102;20.010;2022-10-26T08:14:47;41.47;;;38.20;;
16804;SDS011;8520;50.102;20.010;2022-10-26T08:17:15;43.03;;;38.70;;
16804;SDS011;8520;50.102;20.010;2022-10-26T08:19:43;40.73;;;37.40;;
16804;SDS011;8520;50.102;20.010;2022-10-26T08:22:15;40.40;;;37.13;;
16804;SDS011;8520;50.102;20.010;2022-10-26T08:24:43;40.03;;;36.30;;
16804;SDS011;8520;50.102;20.010;2022-10-26T08:27:12;40.87;;;37.10;;
16804;SDS011;8520;50.102;20.010;2022-10-26T08:29:40;38.57;;;35.50;;
16804;SDS011;8520;50.102;20.010;2022-10-26T08:32:09;39.03;;;35.57;;
16804;SDS011;8520;50.102;20.010;2022-10-26T08:34:37;36.63;;;33.70;;
16804;SDS011;8520;50.102;20.010;2022-10-26T08:37:05;33.43;;;30.70;;
16804;SDS011;8520;50.102;20.010;2022-10-26T08:39:34;32.03;;;29.70;;
16804;SDS011;8520;50.102;20.010;2022-10-26T08:42:03;32.90;;;30.10;;
16804;SDS011;8520;50.102;20.010;2022-10-26T08:44:37;32.43;;;30.00;;
16804;SDS011;8520;50.102;20.010;2022-10-26T08:47:12;30.80;;;28.63;;
16804;SDS011;8520;50.102;20.010;2022-10-26T08:49:50;29.57;;;27.10;;
16804;SDS011;8520;50.102;20.010;2022-10-26T08:52:28;27.87;;;25.67;;
16804;SDS011;8520;50.102;20.010;2022-10-26T08:55:02;28.73;;;26.27;;
16804;SDS011;8520;50.102;20.010;2022-10-26T08:57:37;26.87;;;24.97;;
16804;SDS011;8520;50.102;20.010;2022-10-26T09:00:10;26.27;;;24.07;;
16804;SDS011;8520;50.102;20.010;2022-10-26T09:02:40;26.10;;;23.83;;
16804;SDS011;8520;50.102;20.010;2022-10-26T09:05:13;25.47;;;23.73;;
16804;SDS011;8520;50.102;20.010;2022-10-26T09:07:45;23.70;;;21.80;;
16804;SDS011;8520;50.102;20.010;2022-10-26T09:10:34;23.10;;;21.40;;
16804;SDS011;8520;50.102;20.010;2022-10-26T09:13:10;23.43;;;21.53;;
16804;SDS011;8520;50.102;20.010;2022-10-26T09:15:52;21.63;;;19.80;;
16804;SDS011;8520;50.102;20.010;2022-10-26T09:18:30;19.00;;;17.70;;
16804;SDS011;8520;50.102;20.010;2022-10-26T09:21:06;19.07;;;17.57;;
16804;SDS011;8520;50.102;20.010;2022-10-26T09:23:44;18.80;;;17.40;;
16804;SDS011;8520;50.102;20.010;2022-10-26T09:26:32;17.07;;;15.87;;
16804;SDS011;8520;50.102;20.010;2022-10-26T09:29:05;15.37;;;14.37;;
16804;SDS011;8520;50.102;20.010;2022-10-26T09:31:40;16.20;;;15.00;;
16804;SDS011;8520;50.102;20.010;2022-10-26T09:34:13;15.18;;;14.05;;
16804;SDS011;8520;50.102;20.010;2022-10-26T09:36:45;14.53;;;13.50;;
16804;SDS011;8520;50.102;20.010;2022-10-26T09:39:14;13.98;;;12.98;;
16804;SDS011;8520;50.102;20.010;2022-10-26T09:41:52;13.88;;;12.90;;
16804;SDS011;8520;50.102;20.010;2022-10-26T09:44:24;13.55;;;12.52;;
16804;SDS011;8520;50.102;20.010;2022-10-26T09:47:00;12.82;;;11.68;;
16804;SDS011;8520;50.102;20.010;2022-10-26T09:49:34;12.20;;;11.20;;
16804;SDS011;8520;50.102;20.010;2022-10-26T09:52:06;12.18;;;11.25;;
16804;SDS011;8520;50.102;20.010;2022-10-26T09:54:39;12.73;;;11.30;;
16804;SDS011;8520;50.102;20.010;2022-10-26T09:57:09;10.63;;;9.88;;
16804;SDS011;8520;50.102;20.010;2022-10-26T09:59:41;11.55;;;10.65;;
16804;SDS011;8520;50.102;20.010;2022-10-26T10:05:00;11.07;;;10.27;;
16804;SDS011;8520;50.102;20.010;2022-10-26T10:07:28;10.75;;;9.95;;
16804;SDS011;8520;50.102;20.010;2022-10-26T10:10:06;10.18;;;9.32;;
16804;SDS011;8520;50.102;20.010;2022-10-26T10:12:42;8.77;;;8.05;;
16804;SDS011;8520;50.102;20.010;2022-10-26T10:15:15;9.13;;;8.32;;
16804;SDS011;8520;50.102;20.010;2022-10-26T10:17:46;9.13;;;8.43;;
16804;SDS011;8520;50.102;20.010;2022-10-26T10:20:19;9.13;;;8.43;;
16804;SDS011;8520;50.102;20.010;2022-10-26T10:22:55;8.80;;;8.20;;
16804;SDS011;8520;50.102;20.010;2022-10-26T10:25:32;8.73;;;8.13;;
16804;SDS011;8520;50.102;20.010;2022-10-26T10:28:16;8.45;;;7.65;;
16804;SDS011;8520;50.102;20.010;2022-10-26T10:30:52;8.02;;;7.45;;
16804;SDS011;8520;50.102;20.010;2022-10-26T10:33:22;8.32;;;7.53;;
16804;SDS011;8520;50.102;20.010;2022-10-26T10:36:00;7.60;;;7.00;;
16804;SDS011;8520;50.102;20.010;2022-10-26T10:38:34;7.88;;;7.28;;
16804;SDS011;8520;50.102;20.010;2022-10-26T10:41:04;10.60;;;7.15;;
16804;SDS011;8520;50.102;20.010;2022-10-26T10:43:43;7.13;;;6.47;;
16804;SDS011;8520;50.102;20.010;2022-10-26T10:46:16;6.63;;;5.10;;
16804;SDS011;8520;50.102;20.010;2022-10-26T10:48:47;5.40;;;5.00;;
16804;SDS011;8520;50.102;20.010;2022-10-26T10:51:18;5.00;;;4.70;;
16804;SDS011;8520;50.102;20.010;2022-10-26T10:53:49;5.35;;;4.70;;
16804;SDS011;8520;50.102;20.010;2022-10-26T10:59:14;5.88;;;5.40;;
16804;SDS011;8520;50.102;20.010;2022-10-26T11:01:58;6.10;;;5.53;;
16804;SDS011;8520;50.102;20.010;2022-10-26T11:04:49;6.55;;;6.05;;
16804;SDS011;8520;50.102;20.010;2022-10-26T11:07:31;6.65;;;6.15;;
16804;SDS011;8520;50.102;20.010;2022-10-26T11:10:13;7.28;;;6.68;;
16804;SDS011;8520;50.102;20.010;2022-10-26T11:12:45;6.68;;;6.10;;
16804;SDS011;8520;50.102;20.010;2022-10-26T11:15:20;6.38;;;5.80;;
16804;SDS011;8520;50.102;20.010;2022-10-26T11:17:54;7.82;;;6.93;;
16804;SDS011;8520;50.102;20.010;2022-10-26T11:20:30;7.07;;;6.47;;
16804;SDS011;8520;50.102;20.010;2022-10-26T11:23:03;7.65;;;6.65;;
16804;SDS011;8520;50.102;20.010;2022-10-26T11:25:37;6.32;;;5.85;;
16804;SDS011;8520;50.102;20.010;2022-10-26T11:28:12;10.50;;;7.43;;
16804;SDS011;8520;50.102;20.010;2022-10-26T11:30:45;8.60;;;7.70;;
16804;SDS011;8520;50.102;20.010;2022-10-26T11:33:18;12.20;;;8.55;;
16804;SDS011;8520;50.102;20.010;2022-10-26T11:35:51;10.80;;;7.45;;
16804;SDS011;8520;50.102;20.010;2022-10-26T11:38:27;9.98;;;7.63;;
16804;SDS011;8520;50.102;20.010;2022-10-26T11:41:21;10.05;;;7.38;;
16804;SDS011;8520;50.102;20.010;2022-10-26T11:43:58;8.10;;;7.30;;
16804;SDS011;8520;50.102;20.010;2022-10-26T11:46:35;8.20;;;6.05;;
16804;SDS011;8520;50.102;20.010;2022-10-26T11:49:09;6.82;;;6.15;;
16804;SDS011;8520;50.102;20.010;2022-10-26T11:51:45;7.05;;;6.35;;
16804;SDS011;8520;50.102;20.010;2022-10-26T11:54:19;6.05;;;5.53;;
16804;SDS011;8520;50.102;20.010;2022-10-26T11:56:51;7.20;;;5.82;;
16804;SDS011;8520;50.102;20.010;2022-10-26T11:59:23;5.65;;;5.22;;
16804;SDS011;8520;50.102;20.010;2022-10-26T12:02:01;5.43;;;4.97;;
16804;SDS011;8520;50.102;20.010;2022-10-26T12:04:34;9.73;;;4.95;;
16804;SDS011;8520;50.102;20.010;2022-10-26T12:07:07;6.20;;;5.60;;
16804;SDS011;8520;50.102;20.010;2022-10-26T12:09:40;19.48;;;7.05;;
16804;SDS011;8520;50.102;20.010;2022-10-26T12:12:12;4.63;;;4.30;;
16804;SDS011;8520;50.102;20.010;2022-10-26T12:14:49;4.55;;;4.07;;
16804;SDS011;8520;50.102;20.010;2022-10-26T12:17:25;5.68;;;4.32;;
16804;SDS011;8520;50.102;20.010;2022-10-26T12:20:04;8.95;;;4.75;;
16804;SDS011;8520;50.102;20.010;2022-10-26T12:22:40;5.20;;;4.68;;
16804;SDS011;8520;50.102;20.010;2022-10-26T12:25:17;5.50;;;4.00;;
16804;SDS011;8520;50.102;20.010;2022-10-26T12:27:51;4.82;;;4.40;;
16804;SDS011;8520;50.102;20.010;2022-10-26T12:30:25;4.70;;;4.40;;
16804;SDS011;8520;50.102;20.010;2022-10-26T12:32:58;4.20;;;3.80;;
16804;SDS011;8520;50.102;20.010;2022-10-26T12:41:24;6.97;;;4.80;;
16804;SDS011;8520;50.102;20.010;2022-10-26T12:44:01;4.97;;;4.60;;
16804;SDS011;8520;50.102;20.010;2022-10-26T12:46:51;5.22;;;4.80;;
16804;SDS011;8520;50.102;20.010;2022-10-26T12:52:33;4.78;;;4.30;;
16804;SDS011;8520;50.102;20.010;2022-10-26T12:55:22;7.75;;;3.72;;
16804;SDS011;8520;50.102;20.010;2022-10-26T12:58:13;3.20;;;3.00;;
16804;SDS011;8520;50.102;20.010;2022-10-26T13:00:54;3.72;;;3.50;;
16804;SDS011;8520;50.102;20.010;2022-10-26T13:03:44;4.72;;;3.30;;
16804;SDS011;8520;50.102;20.010;2022-10-26T13:06:34;3.75;;;2.95;;
16804;SDS011;8520;50.102;20.010;2022-10-26T13:09:15;6.28;;;3.33;;
16804;SDS011;8520;50.102;20.010;2022-10-26T13:11:46;5.93;;;3.90;;
16804;SDS011;8520;50.102;20.010;2022-10-26T13:14:19;3.70;;;3.40;;
16804;SDS011;8520;50.102;20.010;2022-10-26T13:16:50;5.00;;;3.40;;
16804;SDS011;8520;50.102;20.010;2022-10-26T13:19:22;4.53;;;3.42;;
16804;SDS011;8520;50.102;20.010;2022-10-26T13:21:53;3.80;;;3.17;;
16804;SDS011;8520;50.102;20.010;2022-10-26T13:24:27;3.58;;;3.28;;
16804;SDS011;8520;50.102;20.010;2022-10-26T13:30:17;3.35;;;3.15;;
16804;SDS011;8520;50.102;20.010;2022-10-26T13:32:48;3.38;;;3.17;;
16804;SDS011;8520;50.102;20.010;2022-10-26T13:35:20;3.22;;;3.03;;
16804;SDS011;8520;50.102;20.010;2022-10-26T13:37:50;4.38;;;3.50;;
16804;SDS011;8520;50.102;20.010;2022-10-26T13:40:22;3.25;;;2.95;;
16804;SDS011;8520;50.102;20.010;2022-10-26T13:42:53;4.07;;;3.65;;
16804;SDS011;8520;50.102;20.010;2022-10-26T13:45:24;8.20;;;3.78;;
16804;SDS011;8520;50.102;20.010;2022-10-26T13:47:55;6.45;;;3.55;;
16804;SDS011;8520;50.102;20.010;2022-10-26T13:50:30;16.10;;;4.40;;
16804;SDS011;8520;50.102;20.010;2022-10-26T13:53:04;8.73;;;3.70;;
16804;SDS011;8520;50.102;20.010;2022-10-26T13:55:42;11.35;;;3.00;;
16804;SDS011;8520;50.102;20.010;2022-10-26T13:58:17;3.15;;;2.88;;
16804;SDS011;8520;50.102;20.010;2022-10-26T14:01:12;3.75;;;3.40;;
16804;SDS011;8520;50.102;20.010;2022-10-26T14:03:44;3.67;;;3.35;;
16804;SDS011;8520;50.102;20.010;2022-10-26T14:06:15;3.40;;;3.20;;
16804;SDS011;8520;50.102;20.010;2022-10-26T14:08:47;3.47;;;3.22;;
16804;SDS011;8520;50.102;20.010;2022-10-26T14:11:18;3.80;;;3.50;;
16804;SDS011;8520;50.102;20.010;2022-10-26T14:13:48;3.20;;;2.90;;
16804;SDS011;8520;50.102;20.010;2022-10-26T14:16:18;3.45;;;3.25;;
16804;SDS011;8520;50.102;20.010;2022-10-26T14:18:47;3.88;;;3.58;;
16804;SDS011;8520;50.102;20.010;2022-10-26T14:21:17;3.72;;;3.50;;
16804;SDS011;8520;50.102;20.010;2022-10-26T14:23:47;3.83;;;3.42;;
16804;SDS011;8520;50.102;20.010;2022-10-26T14:26:20;3.53;;;3.15;;
16804;SDS011;8520;50.102;20.010;2022-10-26T14:28:50;3.03;;;2.63;;
16804;SDS011;8520;50.102;20.010;2022-10-26T14:31:21;4.20;;;3.30;;
16804;SDS011;8520;50.102;20.010;2022-10-26T14:33:51;5.38;;;3.20;;
16804;SDS011;8520;50.102;20.010;2022-10-26T14:36:21;5.90;;;3.10;;
16804;SDS011;8520;50.102;20.010;2022-10-26T14:38:53;4.60;;;3.17;;
16804;SDS011;8520;50.102;20.010;2022-10-26T14:41:26;3.30;;;3.10;;
16804;SDS011;8520;50.102;20.010;2022-10-26T14:43:56;3.78;;;3.22;;
16804;SDS011;8520;50.102;20.010;2022-10-26T14:46:26;3.08;;;2.78;;
16804;SDS011;8520;50.102;20.010;2022-10-26T14:48:59;4.28;;;3.88;;
16804;SDS011;8520;50.102;20.010;2022-10-26T14:51:28;5.85;;;3.67;;
16804;SDS011;8520;50.102;20.010;2022-10-26T14:53:57;3.83;;;3.53;;
16804;SDS011;8520;50.102;20.010;2022-10-26T14:56:29;3.67;;;3.38;;
16804;SDS011;8520;50.102;20.010;2022-10-26T14:59:09;9.20;;;3.53;;
16804;SDS011;8520;50.102;20.010;2022-10-26T15:01:48;5.38;;;3.88;;
16804;SDS011;8520;50.102;20.010;2022-10-26T15:04:29;7.28;;;3.50;;
16804;SDS011;8520;50.102;20.010;2022-10-26T15:07:12;9.73;;;4.38;;
16804;SDS011;8520;50.102;20.010;2022-10-26T15:09:43;6.18;;;4.30;;
16804;SDS011;8520;50.102;20.010;2022-10-26T15:12:21;9.10;;;4.90;;
16804;SDS011;8520;50.102;20.010;2022-10-26T15:14:54;10.30;;;5.50;;
16804;SDS011;8520;50.102;20.010;2022-10-26T15:17:23;7.22;;;4.65;;
16804;SDS011;8520;50.102;20.010;2022-10-26T15:19:57;5.60;;;4.20;;
16804;SDS011;8520;50.102;20.010;2022-10-26T15:22:30;4.90;;;4.03;;